createdAt,value
2019-05-11T00:00:19.567Z,96.44
2019-05-11T00:01:19.533Z,96.34
2019-05-11T00:02:19.519Z,96.54
2019-05-11T00:03:19.517Z,96.44
2019-05-11T00:04:19.503Z,96.54
2019-05-11T00:05:19.489Z,96.75
2019-05-11T00:06:19.483Z,96.34
2019-05-11T00:07:19.474Z,96.34
2019-05-11T00:08:19.541Z,97.21
2019-05-11T00:09:19.441Z,97.05
2019-05-11T00:10:23.218Z,97.46
2019-05-11T00:11:19.425Z,97.25
2019-05-11T00:12:19.410Z,97.21
2019-05-11T00:13:19.407Z,97.00
2019-05-11T00:14:19.384Z,97.31
2019-05-11T00:15:19.470Z,96.35
2019-05-11T00:16:19.384Z,96.96
2019-05-11T00:17:19.351Z,96.25
2019-05-11T00:18:19.361Z,96.00
2019-05-11T00:19:19.339Z,96.04
2019-05-11T00:20:19.383Z,95.94
2019-05-11T00:21:19.311Z,95.94
2019-05-11T00:22:19.296Z,95.39
2019-05-11T00:23:19.350Z,96.10
2019-05-11T00:24:19.281Z,96.10
2019-05-11T00:25:19.276Z,95.94
2019-05-11T00:26:19.272Z,96.00
2019-05-11T00:27:19.252Z,96.55
2019-05-11T00:28:19.244Z,97.22
2019-05-11T00:29:19.222Z,96.20
2019-05-11T00:30:19.214Z,96.41
2019-05-11T00:31:19.268Z,96.10
2019-05-11T00:32:22.651Z,95.69
2019-05-11T00:33:19.213Z,95.90
2019-05-11T00:34:19.221Z,96.00
2019-05-11T00:35:19.184Z,95.69
2019-05-11T00:36:19.189Z,96.06
2019-05-11T00:37:19.198Z,96.26
2019-05-11T00:38:19.144Z,96.36
2019-05-11T00:39:19.125Z,95.69
2019-05-11T00:40:19.105Z,95.45
2019-05-11T00:41:19.161Z,95.49
2019-05-11T00:42:19.083Z,95.95
2019-05-11T00:43:19.092Z,95.79
2019-05-11T00:44:19.068Z,95.49
2019-05-11T00:45:19.054Z,94.93
2019-05-11T00:46:19.039Z,96.26
2019-05-11T00:47:19.063Z,96.06
2019-05-11T00:48:19.036Z,96.06
2019-05-11T00:49:19.011Z,95.75
2019-05-11T00:50:18.998Z,95.00
2019-05-11T00:51:18.989Z,95.04
2019-05-11T00:52:18.975Z,95.14
2019-05-11T00:53:19.003Z,95.04
2019-05-11T00:54:18.951Z,93.87
2019-05-11T00:55:18.948Z,93.37
2019-05-11T00:56:18.929Z,92.96
2019-05-11T00:57:18.926Z,92.65
2019-05-11T00:58:18.937Z,92.10
2019-05-11T00:59:21.657Z,92.41
2019-05-11T01:00:18.898Z,92.51
2019-05-11T01:01:18.889Z,92.61
2019-05-11T01:02:18.873Z,92.71
2019-05-11T01:03:18.858Z,92.71
2019-05-11T01:04:18.853Z,92.71
2019-05-11T01:05:18.837Z,92.30
2019-05-11T01:06:18.841Z,92.10
2019-05-11T01:07:18.879Z,92.71
2019-05-11T01:08:18.797Z,92.91
2019-05-11T01:09:18.801Z,92.21
2019-05-11T01:10:25.632Z,93.02
2019-05-11T01:11:19.769Z,92.96
2019-05-11T01:12:18.754Z,93.06
2019-05-11T01:13:18.817Z,93.06
2019-05-11T01:14:18.741Z,93.57
2019-05-11T01:15:18.721Z,93.98
2019-05-11T01:16:18.714Z,95.00
2019-05-11T01:17:18.707Z,94.79
2019-05-11T01:18:18.688Z,94.63
2019-05-11T01:19:18.692Z,94.08
2019-05-11T01:20:18.852Z,94.08
2019-05-11T01:21:18.698Z,93.57
2019-05-11T01:22:18.644Z,92.96
2019-05-11T01:23:18.799Z,93.06
2019-05-11T01:24:18.633Z,93.67
2019-05-11T01:25:18.612Z,93.57
2019-05-11T01:26:18.600Z,93.67
2019-05-11T01:27:18.606Z,93.57
2019-05-11T01:28:18.634Z,93.16
2019-05-11T01:29:18.577Z,93.26
2019-05-11T01:30:18.564Z,93.77
2019-05-11T01:31:18.548Z,92.65
2019-05-11T01:32:18.535Z,93.67
2019-05-11T01:33:18.528Z,92.65
2019-05-11T01:34:18.531Z,92.61
2019-05-11T01:35:18.539Z,92.10
2019-05-11T01:36:18.502Z,92.10
2019-05-11T01:37:18.481Z,92.30
2019-05-11T01:38:18.474Z,91.69
2019-05-11T01:39:18.590Z,92.41
2019-05-11T01:40:18.449Z,92.71
2019-05-11T01:41:18.481Z,92.82
2019-05-11T01:42:18.427Z,92.71
2019-05-11T01:43:18.416Z,92.51
2019-05-11T01:44:18.414Z,91.86
2019-05-11T01:45:18.405Z,90.53
2019-05-11T01:46:18.386Z,91.55
2019-05-11T01:47:18.383Z,90.94
2019-05-11T01:48:18.412Z,90.64
2019-05-11T01:49:18.389Z,90.74
2019-05-11T01:50:18.346Z,91.14
2019-05-11T01:51:18.341Z,89.98
2019-05-11T01:52:18.317Z,89.88
2019-05-11T01:53:18.307Z,89.98
2019-05-11T01:54:18.320Z,91.10
2019-05-11T01:55:18.283Z,91.10
2019-05-11T01:56:18.263Z,90.09
2019-05-11T01:57:18.247Z,89.07
2019-05-11T01:58:18.246Z,90.49
2019-05-11T01:59:18.229Z,89.37
2019-05-11T02:00:18.233Z,88.12
2019-05-11T02:01:18.260Z,88.21
2019-05-11T02:02:18.211Z,88.01
2019-05-11T02:03:18.231Z,87.40
2019-05-11T02:04:18.228Z,87.71
2019-05-11T02:05:18.195Z,87.61
2019-05-11T02:06:18.151Z,86.65
2019-05-11T02:07:18.145Z,86.76
2019-05-11T02:08:18.130Z,86.76
2019-05-11T02:09:18.119Z,86.15
2019-05-11T02:10:18.150Z,85.80
2019-05-11T02:11:18.100Z,86.10
2019-05-11T02:12:18.084Z,85.94
2019-05-11T02:13:18.073Z,85.70
2019-05-11T02:14:18.061Z,85.30
2019-05-11T02:15:18.081Z,85.19
2019-05-11T02:16:18.068Z,85.30
2019-05-11T02:17:18.032Z,84.69
2019-05-11T02:18:18.016Z,85.76
2019-05-11T02:19:18.031Z,84.99
2019-05-11T02:20:18.053Z,84.69
2019-05-11T02:21:17.987Z,85.56
2019-05-11T02:22:17.978Z,84.99
2019-05-11T02:23:17.963Z,85.80
2019-05-11T02:24:17.957Z,84.85
2019-05-11T02:25:17.971Z,84.69
2019-05-11T02:26:17.959Z,85.05
2019-05-11T02:27:17.959Z,84.75
2019-05-11T02:28:17.912Z,83.73
2019-05-11T02:29:17.897Z,84.55
2019-05-11T02:30:17.904Z,83.63
2019-05-11T02:31:17.880Z,84.30
2019-05-11T02:32:17.881Z,84.04
2019-05-11T02:33:17.893Z,83.63
2019-05-11T02:34:17.842Z,83.63
2019-05-11T02:35:17.847Z,83.59
2019-05-11T02:36:17.828Z,83.80
2019-05-11T02:37:17.816Z,83.49
2019-05-11T02:38:17.800Z,83.39
2019-05-11T02:39:17.792Z,83.53
2019-05-11T02:40:17.806Z,83.73
2019-05-11T02:41:34.481Z,83.43
2019-05-11T02:42:18.801Z,83.53
2019-05-11T02:43:17.751Z,83.80
2019-05-11T02:44:17.734Z,83.29
2019-05-11T02:45:17.738Z,83.33
2019-05-11T02:46:17.718Z,83.63
2019-05-11T02:47:17.701Z,83.83
2019-05-11T02:48:17.692Z,82.62
2019-05-11T02:49:17.692Z,82.92
2019-05-11T02:50:17.684Z,82.52
2019-05-11T02:51:17.655Z,82.28
2019-05-11T02:52:17.644Z,83.49
2019-05-11T02:53:17.647Z,83.59
2019-05-11T02:54:17.653Z,82.31
2019-05-11T02:55:17.626Z,83.43
2019-05-11T02:56:17.598Z,82.58
2019-05-11T02:57:17.592Z,81.87
2019-05-11T02:58:17.585Z,81.87
2019-05-11T02:59:17.566Z,81.77
2019-05-11T03:00:17.623Z,81.43
2019-05-11T03:01:17.547Z,81.43
2019-05-11T03:02:17.535Z,81.83
2019-05-11T03:03:17.540Z,81.43
2019-05-11T03:04:17.511Z,81.63
2019-05-11T03:05:17.516Z,81.46
2019-05-11T03:06:17.557Z,81.26
2019-05-11T03:07:17.484Z,81.23
2019-05-11T03:08:17.472Z,80.82
2019-05-11T03:09:17.454Z,81.23
2019-05-11T03:10:17.457Z,81.23
2019-05-11T03:11:17.449Z,81.52
2019-05-11T03:12:17.459Z,81.43
2019-05-11T03:13:17.418Z,82.14
2019-05-11T03:14:17.401Z,81.23
2019-05-11T03:15:17.390Z,81.93
2019-05-11T03:16:17.394Z,81.93
2019-05-11T03:17:17.372Z,81.43
2019-05-11T03:18:17.463Z,82.03
2019-05-11T03:19:17.364Z,81.73
2019-05-11T03:20:17.335Z,81.43
2019-05-11T03:21:17.338Z,82.03
2019-05-11T03:22:17.312Z,81.73
2019-05-11T03:23:17.307Z,81.83
2019-05-11T03:24:17.296Z,81.63
2019-05-11T03:25:17.294Z,81.83
2019-05-11T03:26:17.286Z,81.93
2019-05-11T03:27:17.262Z,81.83
2019-05-11T03:28:17.254Z,81.83
2019-05-11T03:29:17.246Z,81.83
2019-05-11T03:30:17.266Z,81.73
2019-05-11T03:31:17.348Z,82.24
2019-05-11T03:32:17.203Z,82.14
2019-05-11T03:33:17.196Z,82.44
2019-05-11T03:34:17.189Z,83.39
2019-05-11T03:35:17.171Z,82.48
2019-05-11T03:36:17.178Z,82.14
2019-05-11T03:37:17.155Z,82.58
2019-05-11T03:38:17.145Z,82.34
2019-05-11T03:39:17.141Z,81.93
2019-05-11T03:40:17.133Z,82.03
2019-05-11T03:41:17.116Z,82.24
2019-05-11T03:42:17.104Z,82.68
2019-05-11T03:43:17.081Z,81.52
2019-05-11T03:44:17.069Z,81.52
2019-05-11T03:45:17.062Z,81.43
2019-05-11T03:46:17.062Z,81.43
2019-05-11T03:47:17.074Z,80.72
2019-05-11T03:48:17.036Z,81.32
2019-05-11T03:49:17.018Z,80.72
2019-05-11T03:50:17.062Z,80.11
2019-05-11T03:51:17.011Z,80.62
2019-05-11T03:52:16.982Z,80.62
2019-05-11T03:53:17.021Z,80.82
2019-05-11T03:54:16.963Z,80.92
2019-05-11T03:55:16.967Z,79.80
2019-05-11T03:56:17.007Z,80.41
2019-05-11T03:57:16.927Z,79.80
2019-05-11T03:58:16.928Z,80.31
2019-05-11T03:59:16.908Z,80.21
2019-05-11T04:00:16.899Z,80.01
2019-05-11T04:01:16.912Z,80.55
2019-05-11T04:02:16.872Z,80.21
2019-05-11T04:03:16.871Z,80.52
2019-05-11T04:04:16.993Z,80.76
2019-05-11T04:05:16.853Z,81.46
2019-05-11T04:06:16.858Z,81.77
2019-05-11T04:07:16.824Z,81.77
2019-05-11T04:08:16.836Z,81.67
2019-05-11T04:09:16.806Z,81.46
2019-05-11T04:10:16.801Z,80.65
2019-05-11T04:11:16.792Z,80.55
2019-05-11T04:12:33.428Z,80.55
2019-05-11T04:13:17.757Z,80.35
2019-05-11T04:14:16.775Z,80.45
2019-05-11T04:15:16.739Z,80.45
2019-05-11T04:16:16.770Z,80.86
2019-05-11T04:17:16.801Z,80.55
2019-05-11T04:18:16.718Z,81.16
2019-05-11T04:19:16.694Z,80.86
2019-05-11T04:20:16.692Z,81.40
2019-05-11T04:21:16.708Z,80.76
2019-05-11T04:22:16.676Z,80.76
2019-05-11T04:23:16.649Z,81.37
2019-05-11T04:24:16.644Z,80.45
2019-05-11T04:25:16.638Z,80.55
2019-05-11T04:26:16.648Z,80.86
2019-05-11T04:27:19.521Z,80.86
2019-05-11T04:28:16.595Z,81.57
2019-05-11T04:29:16.604Z,81.87
2019-05-11T04:30:16.583Z,81.06
2019-05-11T04:31:16.560Z,80.45
2019-05-11T04:32:16.569Z,80.65
2019-05-11T04:33:16.544Z,80.65
2019-05-11T04:34:16.540Z,80.86
2019-05-11T04:35:16.512Z,80.65
2019-05-11T04:36:16.522Z,81.26
2019-05-11T04:37:16.503Z,80.65
2019-05-11T04:38:16.485Z,80.35
2019-05-11T04:39:16.505Z,80.05
2019-05-11T04:40:16.464Z,79.91
2019-05-11T04:41:16.454Z,80.45
2019-05-11T04:42:16.453Z,80.65
2019-05-11T04:43:16.426Z,80.65
2019-05-11T04:44:16.438Z,81.67
2019-05-11T04:45:16.402Z,80.45
2019-05-11T04:46:16.432Z,81.16
2019-05-11T04:47:16.394Z,80.35
2019-05-11T04:48:16.368Z,80.55
2019-05-11T04:49:16.374Z,80.45
2019-05-11T04:50:16.348Z,80.86
2019-05-11T04:51:16.337Z,80.55
2019-05-11T04:52:16.348Z,80.65
2019-05-11T04:53:16.317Z,80.55
2019-05-11T04:54:16.331Z,81.26
2019-05-11T04:55:16.296Z,81.46
2019-05-11T04:56:16.306Z,81.46
2019-05-11T04:57:16.306Z,81.06
2019-05-11T04:58:16.318Z,82.17
2019-05-11T04:59:16.315Z,81.46
2019-05-11T05:00:16.238Z,82.17
2019-05-11T05:01:16.235Z,81.67
2019-05-11T05:02:16.255Z,81.37
2019-05-11T05:03:16.204Z,81.46
2019-05-11T05:04:16.192Z,80.25
2019-05-11T05:05:16.182Z,80.65
2019-05-11T05:06:24.481Z,80.62
2019-05-11T05:07:17.173Z,80.31
2019-05-11T05:08:16.153Z,80.52
2019-05-11T05:09:16.174Z,80.62
2019-05-11T05:10:20.046Z,80.92
2019-05-11T05:11:17.126Z,80.31
2019-05-11T05:12:16.116Z,80.41
2019-05-11T05:13:16.117Z,80.52
2019-05-11T05:14:16.100Z,80.41
2019-05-11T05:15:16.083Z,80.11
2019-05-11T05:16:16.070Z,80.82
2019-05-11T05:17:16.062Z,80.11
2019-05-11T05:18:16.043Z,80.11
2019-05-11T05:19:16.028Z,80.01
2019-05-11T05:20:16.017Z,80.01
2019-05-11T05:21:16.007Z,79.60
2019-05-11T05:22:16.023Z,79.36
2019-05-11T05:23:15.993Z,79.30
2019-05-11T05:24:15.977Z,79.87
2019-05-11T05:25:15.970Z,78.15
2019-05-11T05:26:15.964Z,78.75
2019-05-11T05:27:15.963Z,78.55
2019-05-11T05:28:15.934Z,78.25
2019-05-11T05:29:15.928Z,79.13
2019-05-11T05:30:15.908Z,78.86
2019-05-11T05:31:15.896Z,77.84
2019-05-11T05:32:15.902Z,77.91
2019-05-11T05:33:15.885Z,77.91
2019-05-11T05:34:15.884Z,78.82
2019-05-11T05:35:15.859Z,78.21
2019-05-11T05:36:15.841Z,78.21
2019-05-11T05:37:15.858Z,78.25
2019-05-11T05:38:15.848Z,77.54
2019-05-11T05:39:15.809Z,77.54
2019-05-11T05:40:15.800Z,77.03
2019-05-11T05:41:15.792Z,76.73
2019-05-11T05:42:15.788Z,77.95
2019-05-11T05:43:25.978Z,76.73
2019-05-11T05:44:16.762Z,76.79
2019-05-11T05:45:15.748Z,77.00
2019-05-11T05:46:15.746Z,76.09
2019-05-11T05:47:15.746Z,76.46
2019-05-11T05:48:15.718Z,75.75
2019-05-11T05:49:15.705Z,76.35
2019-05-11T05:50:15.764Z,75.24
2019-05-11T05:51:15.681Z,75.79
2019-05-11T05:52:15.690Z,76.35
2019-05-11T05:53:15.674Z,75.75
2019-05-11T05:54:15.649Z,76.15
2019-05-11T05:55:15.642Z,76.56
2019-05-11T05:56:15.642Z,75.85
2019-05-11T05:57:15.613Z,75.95
2019-05-11T05:58:15.634Z,75.58
2019-05-11T05:59:15.596Z,76.35
2019-05-11T06:00:15.613Z,75.75
2019-05-11T06:01:15.569Z,76.39
2019-05-11T06:02:15.560Z,76.59
2019-05-11T06:03:15.562Z,76.19
2019-05-11T06:04:15.558Z,76.39
2019-05-11T06:05:15.536Z,75.95
2019-05-11T06:06:15.521Z,75.28
2019-05-11T06:07:15.509Z,75.34
2019-05-11T06:08:15.512Z,74.80
2019-05-11T06:09:15.486Z,74.57
2019-05-11T06:10:15.479Z,72.85
2019-05-11T06:11:15.464Z,72.78
2019-05-11T06:12:15.463Z,71.00
2019-05-11T06:13:15.457Z,70.02
2019-05-11T06:14:15.446Z,69.15
2019-05-11T06:15:15.436Z,66.83
2019-05-11T06:16:15.434Z,67.71
2019-05-11T06:17:15.423Z,65.87
2019-05-11T06:18:15.435Z,65.50
2019-05-11T06:19:15.420Z,66.97
2019-05-11T06:20:15.362Z,70.50
2019-05-11T06:21:15.353Z,68.98
2019-05-11T06:22:15.351Z,68.88
2019-05-11T06:23:15.349Z,67.84
2019-05-11T06:24:15.342Z,69.25
2019-05-11T06:25:15.371Z,69.42
2019-05-11T06:26:15.338Z,71.80
2019-05-11T06:27:15.287Z,72.55
2019-05-11T06:28:15.339Z,73.55
2019-05-11T06:29:15.263Z,73.86
2019-05-11T06:30:15.269Z,72.51
2019-05-11T06:31:15.243Z,68.88
2019-05-11T06:32:15.232Z,65.30
2019-05-11T06:33:15.231Z,65.87
2019-05-11T06:34:15.207Z,62.92
2019-05-11T06:35:15.201Z,63.23
2019-05-11T06:36:15.186Z,61.83
2019-05-11T06:37:15.176Z,61.10
2019-05-11T06:38:15.176Z,61.50
2019-05-11T06:39:15.152Z,61.19
2019-05-11T06:40:15.146Z,61.50
2019-05-11T06:41:15.130Z,61.19
2019-05-11T06:42:15.144Z,60.82
2019-05-11T06:43:15.126Z,62.46
2019-05-11T06:44:15.113Z,61.90
2019-05-11T06:45:15.107Z,60.49
2019-05-11T06:46:15.079Z,62.06
2019-05-11T06:47:15.123Z,61.70
2019-05-11T06:48:15.064Z,61.50
2019-05-11T06:49:15.051Z,60.16
2019-05-11T06:50:15.041Z,60.47
2019-05-11T06:51:15.051Z,59.98
2019-05-11T06:52:15.009Z,62.39
2019-05-11T06:53:15.009Z,61.18
2019-05-11T06:54:15.000Z,63.89
2019-05-11T06:55:14.977Z,66.02
2019-05-11T06:56:14.964Z,67.10
2019-05-11T06:57:14.957Z,63.65
2019-05-11T06:58:14.970Z,62.29
2019-05-11T06:59:14.942Z,61.35
2019-05-11T07:00:14.938Z,59.72
2019-05-11T07:01:14.920Z,61.13
2019-05-11T07:02:14.899Z,61.19
2019-05-11T07:03:14.913Z,61.02
2019-05-11T07:04:14.890Z,60.05
2019-05-11T07:05:14.879Z,60.02
2019-05-11T07:06:14.855Z,60.39
2019-05-11T07:07:14.845Z,58.09
2019-05-11T07:08:14.831Z,57.81
2019-05-11T07:09:14.834Z,57.91
2019-05-11T07:10:14.818Z,58.46
2019-05-11T07:11:14.801Z,58.83
2019-05-11T07:12:14.815Z,59.20
2019-05-11T07:13:14.783Z,58.28
2019-05-11T07:14:20.331Z,59.25
2019-05-11T07:15:15.759Z,57.05
2019-05-11T07:16:14.765Z,57.17
2019-05-11T07:17:14.736Z,57.57
2019-05-11T07:18:14.725Z,56.23
2019-05-11T07:19:14.732Z,56.98
2019-05-11T07:20:14.707Z,58.06
2019-05-11T07:21:14.697Z,58.16
2019-05-11T07:22:14.682Z,61.11
2019-05-11T07:23:14.670Z,56.48
2019-05-11T07:24:14.671Z,57.07
2019-05-11T07:25:14.657Z,58.65
2019-05-11T07:26:14.637Z,53.97
2019-05-11T07:27:14.632Z,55.90
2019-05-11T07:28:14.624Z,56.00
2019-05-11T07:29:14.618Z,55.90
2019-05-11T07:30:14.607Z,55.47
2019-05-11T07:31:14.584Z,54.22
2019-05-11T07:32:22.406Z,55.32
2019-05-11T07:33:15.561Z,57.70
2019-05-11T07:34:14.567Z,56.32
2019-05-11T07:35:14.545Z,56.49
2019-05-11T07:36:14.526Z,53.30
2019-05-11T07:37:14.516Z,52.69
2019-05-11T07:38:14.509Z,52.77
2019-05-11T07:39:14.505Z,52.97
2019-05-11T07:40:14.484Z,52.07
2019-05-11T07:41:14.474Z,55.77
2019-05-11T07:42:14.462Z,54.35
2019-05-11T07:43:14.452Z,55.62
2019-05-11T07:44:14.452Z,53.67
2019-05-11T07:45:14.432Z,51.54
2019-05-11T07:46:14.422Z,51.45
2019-05-11T07:47:14.418Z,53.81
2019-05-11T07:48:14.398Z,50.62
2019-05-11T07:49:14.402Z,50.15
2019-05-11T07:50:14.379Z,50.49
2019-05-11T07:51:14.375Z,50.54
2019-05-11T07:52:14.362Z,51.25
2019-05-11T07:53:14.382Z,53.82
2019-05-11T07:54:14.393Z,52.52
2019-05-11T07:55:14.321Z,51.84
2019-05-11T07:56:14.313Z,50.45
2019-05-11T07:57:14.301Z,50.22
2019-05-11T07:58:14.294Z,50.76
2019-05-11T07:59:14.294Z,50.87
2019-05-11T08:00:14.268Z,50.79
2019-05-11T08:01:14.256Z,53.74
2019-05-11T08:02:14.247Z,50.79
2019-05-11T08:03:14.234Z,50.17
2019-05-11T08:04:14.237Z,51.75
2019-05-11T08:05:14.213Z,53.31
2019-05-11T08:06:14.203Z,49.30
2019-05-11T08:07:14.189Z,49.00
2019-05-11T08:08:14.181Z,50.45
2019-05-11T08:09:14.179Z,50.72
2019-05-11T08:10:14.166Z,51.59
2019-05-11T08:11:14.155Z,50.37
2019-05-11T08:12:14.136Z,50.65
2019-05-11T08:13:14.128Z,50.62
2019-05-11T08:14:14.124Z,50.72
2019-05-11T08:15:14.126Z,49.05
2019-05-11T08:16:14.092Z,50.49
2019-05-11T08:17:14.082Z,52.22
2019-05-11T08:18:14.071Z,54.68
2019-05-11T08:19:14.086Z,53.77
2019-05-11T08:20:14.051Z,54.60
2019-05-11T08:21:14.048Z,59.14
2019-05-11T08:22:14.027Z,58.14
2019-05-11T08:23:14.024Z,57.01
2019-05-11T08:24:14.007Z,56.35
2019-05-11T08:25:14.003Z,58.33
2019-05-11T08:26:13.986Z,53.62
2019-05-11T08:27:13.973Z,55.73
2019-05-11T08:28:13.968Z,54.43
2019-05-11T08:29:13.954Z,52.09
2019-05-11T08:30:13.953Z,52.09
2019-05-11T08:31:13.930Z,52.55
2019-05-11T08:32:13.920Z,52.55
2019-05-11T08:33:13.909Z,53.79
2019-05-11T08:34:13.898Z,53.54
2019-05-11T08:35:13.896Z,53.31
2019-05-11T08:36:13.877Z,51.75
2019-05-11T08:37:13.864Z,51.09
2019-05-11T08:38:13.854Z,53.97
2019-05-11T08:39:13.851Z,51.07
2019-05-11T08:40:13.844Z,51.09
2019-05-11T08:41:13.823Z,52.62
2019-05-11T08:42:13.812Z,50.10
2019-05-11T08:43:13.799Z,48.30
2019-05-11T08:44:13.791Z,48.50
2019-05-11T08:45:20.012Z,46.73
2019-05-11T08:46:14.767Z,48.18
2019-05-11T08:47:13.757Z,47.33
2019-05-11T08:48:13.746Z,50.00
2019-05-11T08:49:15.873Z,47.75
2019-05-11T08:50:15.395Z,49.43
2019-05-11T08:51:13.716Z,47.58
2019-05-11T08:52:13.704Z,50.54
2019-05-11T08:53:13.692Z,52.17
2019-05-11T08:54:13.680Z,51.47
2019-05-11T08:55:13.681Z,49.90
2019-05-11T08:56:13.659Z,44.70
2019-05-11T08:57:13.649Z,46.61
2019-05-11T08:58:13.641Z,47.61
2019-05-11T08:59:13.627Z,48.61
2019-05-11T09:00:13.630Z,45.72
2019-05-11T09:01:13.607Z,45.59
2019-05-11T09:02:13.600Z,47.27
2019-05-11T09:03:13.585Z,48.14
2019-05-11T09:04:13.573Z,50.19
2019-05-11T09:05:13.573Z,50.34
2019-05-11T09:06:13.553Z,51.11
2019-05-11T09:07:13.542Z,52.39
2019-05-11T09:08:13.530Z,52.42
2019-05-11T09:09:13.520Z,50.92
2019-05-11T09:10:13.521Z,49.49
2019-05-11T09:11:13.499Z,50.22
2019-05-11T09:12:13.489Z,50.49
2019-05-11T09:13:13.477Z,47.17
2019-05-11T09:14:13.466Z,49.05
2019-05-11T09:15:28.035Z,49.10
2019-05-11T09:16:15.828Z,50.02
2019-05-11T09:17:13.452Z,48.99
2019-05-11T09:18:13.472Z,49.87
2019-05-11T09:19:13.455Z,48.10
2019-05-11T09:20:13.421Z,48.60
2019-05-11T09:21:13.390Z,53.39
2019-05-11T09:22:13.380Z,51.12
2019-05-11T09:23:13.369Z,50.63
2019-05-11T09:24:13.360Z,53.12
2019-05-11T09:25:13.377Z,51.49
2019-05-11T09:26:13.336Z,50.86
2019-05-11T09:27:13.326Z,52.80
2019-05-11T09:28:13.315Z,52.44
2019-05-11T09:29:13.305Z,55.51
2019-05-11T09:30:13.294Z,55.71
2019-05-11T09:31:13.292Z,55.41
2019-05-11T09:32:13.273Z,54.55
2019-05-11T09:33:13.262Z,55.40
2019-05-11T09:34:13.249Z,53.90
2019-05-11T09:35:13.240Z,55.38
2019-05-11T09:36:13.263Z,53.72
2019-05-11T09:37:13.217Z,53.02
2019-05-11T09:38:13.207Z,52.34
2019-05-11T09:39:13.196Z,55.73
2019-05-11T09:40:13.187Z,56.03
2019-05-11T09:41:13.183Z,55.10
2019-05-11T09:42:13.165Z,55.98
2019-05-11T09:43:13.153Z,53.14
2019-05-11T09:44:13.142Z,52.72
2019-05-11T09:45:13.130Z,54.97
2019-05-11T09:46:13.134Z,54.44
2019-05-11T09:47:13.111Z,52.07
2019-05-11T09:48:13.104Z,52.69
2019-05-11T09:49:13.092Z,55.02
2019-05-11T09:50:13.078Z,54.87
2019-05-11T09:51:13.081Z,55.65
2019-05-11T09:52:13.060Z,52.32
2019-05-11T09:53:13.046Z,51.54
2019-05-11T09:54:13.038Z,52.87
2019-05-11T09:55:13.029Z,50.39
2019-05-11T09:56:13.026Z,53.97
2019-05-11T09:57:13.004Z,48.67
2019-05-11T09:58:13.004Z,50.89
2019-05-11T09:59:12.983Z,52.42
2019-05-11T10:00:12.972Z,51.52
2019-05-11T10:01:12.973Z,50.94
2019-05-11T10:02:12.954Z,50.59
2019-05-11T10:03:12.938Z,52.24
2019-05-11T10:04:12.929Z,52.75
2019-05-11T10:05:12.916Z,53.14
2019-05-11T10:06:12.918Z,53.05
2019-05-11T10:07:12.898Z,52.77
2019-05-11T10:08:12.888Z,54.13
2019-05-11T10:09:12.874Z,54.85
2019-05-11T10:10:12.863Z,54.72
2019-05-11T10:11:12.862Z,55.66
2019-05-11T10:12:12.846Z,55.35
2019-05-11T10:13:12.834Z,57.64
2019-05-11T10:14:12.819Z,54.77
2019-05-11T10:15:12.814Z,54.88
2019-05-11T10:16:12.809Z,56.45
2019-05-11T10:17:12.789Z,54.93
2019-05-11T10:18:12.781Z,54.77
2019-05-11T10:19:12.775Z,54.30
2019-05-11T10:20:12.758Z,56.46
2019-05-11T10:21:12.757Z,54.68
2019-05-11T10:22:12.734Z,55.33
2019-05-11T10:23:12.725Z,55.13
2019-05-11T10:24:12.713Z,56.54
2019-05-11T10:25:12.703Z,54.33
2019-05-11T10:26:12.708Z,54.15
2019-05-11T10:27:12.686Z,54.68
2019-05-11T10:28:12.670Z,54.30
2019-05-11T10:29:12.658Z,56.54
2019-05-11T10:30:12.649Z,57.75
2019-05-11T10:31:12.661Z,56.57
2019-05-11T10:32:12.627Z,56.90
2019-05-11T10:33:12.616Z,57.81
2019-05-11T10:34:12.605Z,58.21
2019-05-11T10:35:12.596Z,56.57
2019-05-11T10:36:12.585Z,55.51
2019-05-11T10:37:12.584Z,54.20
2019-05-11T10:38:12.568Z,55.05
2019-05-11T10:39:12.552Z,54.83
2019-05-11T10:40:12.542Z,53.09
2019-05-11T10:41:12.533Z,54.68
2019-05-11T10:42:12.529Z,54.68
2019-05-11T10:43:12.509Z,55.68
2019-05-11T10:44:12.499Z,55.91
2019-05-11T10:45:12.488Z,56.41
2019-05-11T10:46:19.555Z,58.12
2019-05-11T10:47:13.479Z,55.96
2019-05-11T10:48:12.455Z,58.18
2019-05-11T10:49:12.444Z,56.67
2019-05-11T10:50:12.433Z,57.75
2019-05-11T10:51:12.421Z,55.71
2019-05-11T10:52:12.421Z,56.82
2019-05-11T10:53:12.401Z,55.43
2019-05-11T10:54:12.390Z,55.74
2019-05-11T10:55:12.379Z,56.16
2019-05-11T10:56:12.368Z,54.73
2019-05-11T10:57:12.367Z,54.68
2019-05-11T10:58:12.350Z,54.02
2019-05-11T10:59:15.489Z,54.22
2019-05-11T11:00:12.325Z,51.84
2019-05-11T11:01:12.315Z,51.72
2019-05-11T11:02:12.316Z,53.82
2019-05-11T11:03:12.293Z,50.11
2019-05-11T11:04:12.282Z,53.17
2019-05-11T11:05:12.273Z,52.55
2019-05-11T11:06:12.262Z,51.89
2019-05-11T11:07:12.261Z,51.77
2019-05-11T11:08:12.244Z,50.26
2019-05-11T11:09:12.231Z,50.46
2019-05-11T11:10:12.220Z,50.37
2019-05-11T11:11:12.210Z,50.79
2019-05-11T11:12:12.212Z,51.01
2019-05-11T11:13:12.191Z,52.77
2019-05-11T11:14:12.177Z,52.82
2019-05-11T11:15:12.170Z,50.92
2019-05-11T11:16:12.156Z,50.22
2019-05-11T11:17:12.155Z,48.74
2019-05-11T11:18:12.136Z,51.04
2019-05-11T11:19:12.127Z,51.32
2019-05-11T11:20:12.114Z,52.17
2019-05-11T11:21:12.104Z,53.12
2019-05-11T11:22:35.027Z,53.89
2019-05-11T11:23:13.083Z,51.57
2019-05-11T11:24:12.076Z,51.14
2019-05-11T11:25:12.065Z,50.32
2019-05-11T11:26:12.052Z,49.90
2019-05-11T11:27:12.053Z,50.04
2019-05-11T11:28:12.033Z,48.40
2019-05-11T11:29:12.023Z,49.48
2019-05-11T11:30:12.019Z,47.35
2019-05-11T11:31:12.028Z,48.97
2019-05-11T11:32:12.004Z,47.77
2019-05-11T11:33:11.983Z,48.45
2019-05-11T11:34:11.971Z,46.27
2019-05-11T11:35:11.960Z,45.75
2019-05-11T11:36:11.995Z,45.79
2019-05-11T11:37:11.940Z,47.54
2019-05-11T11:38:11.943Z,48.54
2019-05-11T11:39:11.920Z,52.47
2019-05-11T11:40:11.908Z,50.84
2019-05-11T11:41:11.956Z,52.32
2019-05-11T11:42:11.891Z,50.57
2019-05-11T11:43:11.889Z,51.87
2019-05-11T11:44:11.869Z,50.19
2019-05-11T11:45:11.860Z,51.24
2019-05-11T11:46:11.865Z,52.39
2019-05-11T11:47:11.842Z,51.89
2019-05-11T11:48:11.838Z,50.22
2019-05-11T11:49:11.819Z,49.40
2019-05-11T11:50:11.806Z,51.07
2019-05-11T11:51:11.795Z,49.37
2019-05-11T11:52:11.784Z,50.92
2019-05-11T11:53:11.783Z,52.14
2019-05-11T11:54:11.763Z,55.47
2019-05-11T11:55:11.752Z,49.09
2019-05-11T11:56:11.796Z,49.46
2019-05-11T11:57:11.736Z,50.29
2019-05-11T11:58:11.738Z,47.16
2019-05-11T11:59:11.712Z,49.41
2019-05-11T12:00:11.702Z,48.94
2019-05-11T12:01:11.691Z,46.95
2019-05-11T12:02:11.766Z,45.43
2019-05-11T12:03:11.679Z,46.20
2019-05-11T12:04:11.659Z,43.63
2019-05-11T12:05:11.652Z,44.41
2019-05-11T12:06:11.657Z,45.09
2019-05-11T12:07:11.629Z,49.37
2019-05-11T12:08:11.628Z,47.39
2019-05-11T12:09:11.609Z,47.26
2019-05-11T12:10:11.598Z,48.03
2019-05-11T12:11:11.586Z,48.58
2019-05-11T12:12:11.634Z,50.21
2019-05-11T12:13:11.601Z,49.48
2019-05-11T12:14:11.573Z,46.16
2019-05-11T12:15:11.601Z,46.00
2019-05-11T12:16:11.558Z,46.73
2019-05-11T12:17:11.566Z,44.83
2019-05-11T12:18:11.528Z,45.14
2019-05-11T12:19:11.505Z,46.12
2019-05-11T12:20:11.496Z,45.87
2019-05-11T12:21:11.483Z,48.99
2019-05-11T12:22:11.472Z,49.57
2019-05-11T12:23:11.475Z,49.84
2019-05-11T12:24:11.451Z,50.16
2019-05-11T12:25:11.441Z,48.02
2019-05-11T12:26:11.431Z,50.04
2019-05-11T12:27:11.424Z,47.36
2019-05-11T12:28:11.421Z,46.99
2019-05-11T12:29:11.401Z,45.87
2019-05-11T12:30:11.388Z,45.08
2019-05-11T12:31:11.380Z,44.23
2019-05-11T12:32:11.370Z,48.18
2019-05-11T12:33:11.372Z,47.80
2019-05-11T12:34:11.350Z,45.78
2019-05-11T12:35:11.338Z,47.74
2019-05-11T12:36:11.334Z,47.03
2019-05-11T12:37:11.319Z,45.72
2019-05-11T12:38:11.319Z,46.61
2019-05-11T12:39:11.297Z,44.90
2019-05-11T12:40:11.287Z,45.22
2019-05-11T12:41:11.279Z,44.02
2019-05-11T12:42:11.270Z,43.63
2019-05-11T12:43:11.268Z,48.47
2019-05-11T12:44:11.246Z,46.22
2019-05-11T12:45:11.237Z,49.24
2019-05-11T12:46:11.227Z,47.89
2019-05-11T12:47:21.093Z,50.17
2019-05-11T12:48:12.226Z,48.55
2019-05-11T12:49:11.195Z,47.33
2019-05-11T12:50:11.186Z,47.33
2019-05-11T12:51:11.174Z,50.72
2019-05-11T12:52:11.169Z,46.97